Flying Dolphin Xvii — SV9699 — position and weather

sailwx.info

Track history (hours):
 
Tides and Currents Weather Stations Pressure Air Temp Water Temp Dewpoint Dewpoint Depression Visibility Wind Speed Wind Dir Waves Ship Positions

Flying Dolphin Xvii

Last reported at 2017-Nov-19 17:02 UTC. Time now 2017-Nov-19 20:07 UTC.
Position N 37°23' E 023°23'.

Length 35 m.

MMSI: 237023600.

Date/timePositionNaut miles runAvg speedWind from/ knotsBaromVisibWave heightAir tempDewpointWater temp
2017-Nov-19 17:02N 37°23' E 023°23'132.9
2017-Nov-19 17:00N 37°22' E 023°23'812.7
2017-Nov-19 16:21N 37°29' E 023°29'412.2
2017-Nov-19 16:00N 37°33' E 023°26'1530.6
2017-Nov-19 15:31N 37°48' E 023°28'1224.3
2017-Nov-19 15:01N 37°57' E 023°39'1 0.1
2017-Nov-19 06:51N 37°56' E 023°38'1027.7
2017-Nov-19 06:30N 37°50' E 023°28'1730.5
2017-Nov-19 05:58N 37°34' E 023°25'10 0.7
2017-Nov-18 16:34N 37°26' E 023°33'816.5
2017-Nov-18 16:04N 37°32' E 023°25'233.1
2017-Nov-18 16:00N 37°34' E 023°26'1529.8
2017-Nov-18 15:30N 37°48' E 023°29'11 1.3
2017-Nov-18 06:48N 37°56' E 023°38'826.7
2017-Nov-18 06:30N 37°51' E 023°32'1428.6
2017-Nov-18 06:01N 37°37' E 023°26'1219.8
2017-Nov-18 05:26N 37°27' E 023°32'1 0.1
2017-Nov-17 16:37N 37°26' E 023°33'2221.8
2017-Nov-17 15:37N 37°46' E 023°25'431.9
2017-Nov-17 15:30N 37°49' E 023°29'11 1.3
2017-Nov-17 07:05N 37°57' E 023°39'0 1.7
2017-Nov-17 07:00N 37°57' E 023°38'1326.6
2017-Nov-17 06:30N 37°47' E 023°27'1530.2
2017-Nov-17 06:00N 37°32' E 023°25'9 0.8
2017-Nov-16 18:29N 37°23' E 023°23'810.6
2017-Nov-16 17:43N 37°26' E 023°33'4 8.4
2017-Nov-16 17:17N 37°29' E 023°30'3 8.9
2017-Nov-16 17:00N 37°30' E 023°27'6 9.8
2017-Nov-16 16:26N 37°35' E 023°25'410.1
2017-Nov-16 16:00N 37°39' E 023°25'1325.7
2017-Nov-16 15:31N 37°51' E 023°32'8 1.2
2017-Nov-16 09:03N 37°57' E 023°39'0 0.0
2017-Nov-16 09:00N 37°57' E 023°39'1223.9
2017-Nov-16 08:31N 37°49' E 023°27'815.6
2017-Nov-16 08:00N 37°43' E 023°21'713.7
2017-Nov-16 07:31N 37°48' E 023°26'1326.1
2017-Nov-16 07:00N 37°57' E 023°39'815.0
2017-Nov-16 06:31N 37°53' E 023°30'915.5
2017-Nov-16 05:55N 37°45' E 023°26'1228.1
2017-Nov-16 05:31N 37°55' E 023°33'510.1
2017-Nov-16 05:00N 37°57' E 023°39'0 0.0
2017-Nov-15 07:05N 37°57' E 023°39'0 3.3
2017-Nov-15 07:01N 37°57' E 023°38'1325.5
2017-Nov-15 06:30N 37°48' E 023°27'1529.3
2017-Nov-15 06:00N 37°33' E 023°25'10 0.8
2017-Nov-14 17:11N 37°23' E 023°23'513.5
2017-Nov-14 16:50N 37°23' E 023°29'721.4
2017-Nov-14 16:30N 37°30' E 023°28'815.2
2017-Nov-14 15:59N 37°37' E 023°26'1429.6
2017-Nov-14 15:31N 37°51' E 023°30'917.9
2017-Nov-14 15:00N 37°57' E 023°39'3 6.5
2017-Nov-14 14:30N 37°55' E 023°35'1318.2
2017-Nov-14 13:48N 37°45' E 023°25'827.7
2017-Nov-14 13:31N 37°51' E 023°32'815.6
2017-Nov-14 13:00N 37°57' E 023°39'1122.8
2017-Nov-14 12:30N 37°49' E 023°29'816.3
2017-Nov-14 12:00N 37°43' E 023°21'5 9.7
2017-Nov-14 11:31N 37°46' E 023°25'1428.4
2017-Nov-14 11:00N 37°56' E 023°38'1 0.1
2017-Nov-14 06:46N 37°57' E 023°39'518.1
2017-Nov-14 06:31N 37°53' E 023°36'1632.0
2017-Nov-14 06:01N 37°37' E 023°29'816.5
2017-Nov-14 05:30N 37°29' E 023°29'10 0.3
2017-Nov-12 17:06N 37°22' E 023°21'332.7
2017-Nov-12 17:01N 37°22' E 023°24'813.1
2017-Nov-12 16:22N 37°30' E 023°28'513.0
2017-Nov-12 16:00N 37°34' E 023°25'1631.4
2017-Nov-12 15:31N 37°49' E 023°26'1224.2
2017-Nov-12 15:00N 37°57' E 023°39'0 0.1
2017-Nov-12 14:30N 37°57' E 023°39'0 0.0
2017-Nov-12 06:54N 37°57' E 023°39'615.5
2017-Nov-12 06:31N 37°52' E 023°33'1529.4
2017-Nov-12 06:00N 37°39' E 023°26'1020.3
2017-Nov-12 05:30N 37°29' E 023°29'10 0.8
2017-Nov-11 17:04N 37°23' E 023°21'232.0
2017-Nov-11 17:00N 37°22' E 023°23'914.7
2017-Nov-11 16:24N 37°29' E 023°30'615.2
2017-Nov-11 16:01N 37°34' E 023°25'1631.4
2017-Nov-11 15:31N 37°49' E 023°28'1122.8
2017-Nov-11 15:01N 37°57' E 023°39'0 0.0
2017-Nov-11 06:47N 37°57' E 023°39'310.3
2017-Nov-11 06:30N 37°54' E 023°37'1632.6
2017-Nov-11 06:01N 37°39' E 023°30'918.8
2017-Nov-11 05:30N 37°30' E 023°28'8 0.7
2017-Nov-10 17:03N 37°22' E 023°23'132.9
2017-Nov-10 17:00N 37°22' E 023°24'814.6
2017-Nov-10 16:26N 37°29' E 023°30'614.2
2017-Nov-10 16:00N 37°33' E 023°25'1530.3
2017-Nov-10 15:30N 37°48' E 023°28'1223.2
2017-Nov-10 15:00N 37°57' E 023°39'0 0.0
2017-Nov-10 14:30N 37°57' E 023°39'0 0.0
2017-Nov-10 07:01N 37°57' E 023°39'0 0.0
2017-Nov-10 06:49N 37°57' E 023°39'411.7
2017-Nov-10 06:31N 37°54' E 023°36'1732.4
2017-Nov-10 06:00N 37°38' E 023°30'817.0
2017-Nov-10 05:30N 37°29' E 023°29'  
Track history (hours):
 
Tides and Currents Weather Stations Pressure Air Temp Water Temp Dewpoint Dewpoint Depression Visibility Wind Speed Wind Dir Waves Ship Positions

Flying Dolphin Xvii

Last reported at 2017-Nov-19 17:02 UTC. Time now 2017-Nov-19 20:07 UTC.
Position N 37°23' E 023°23'.

Length 35 m.

MMSI: 237023600.

Date/timePositionNaut miles runAvg speedWind from/ knotsBaromVisibWave heightAir tempDewpointWater temp
2017-Nov-19 17:02N 37°23' E 023°23'132.9
2017-Nov-19 17:00N 37°22' E 023°23'812.7
2017-Nov-19 16:21N 37°29' E 023°29'412.2
2017-Nov-19 16:00N 37°33' E 023°26'1530.6
2017-Nov-19 15:31N 37°48' E 023°28'1224.3
2017-Nov-19 15:01N 37°57' E 023°39'1 0.1
2017-Nov-19 06:51N 37°56' E 023°38'1027.7
2017-Nov-19 06:30N 37°50' E 023°28'1730.5
2017-Nov-19 05:58N 37°34' E 023°25'10 0.7
2017-Nov-18 16:34N 37°26' E 023°33'816.5
2017-Nov-18 16:04N 37°32' E 023°25'233.1
2017-Nov-18 16:00N 37°34' E 023°26'1529.8
2017-Nov-18 15:30N 37°48' E 023°29'11 1.3
2017-Nov-18 06:48N 37°56' E 023°38'826.7
2017-Nov-18 06:30N 37°51' E 023°32'1428.6
2017-Nov-18 06:01N 37°37' E 023°26'1219.8
2017-Nov-18 05:26N 37°27' E 023°32'1 0.1
2017-Nov-17 16:37N 37°26' E 023°33'2221.8
2017-Nov-17 15:37N 37°46' E 023°25'431.9
2017-Nov-17 15:30N 37°49' E 023°29'11 1.3
2017-Nov-17 07:05N 37°57' E 023°39'0 1.7
2017-Nov-17 07:00N 37°57' E 023°38'1326.6
2017-Nov-17 06:30N 37°47' E 023°27'1530.2
2017-Nov-17 06:00N 37°32' E 023°25'9 0.8
2017-Nov-16 18:29N 37°23' E 023°23'810.6
2017-Nov-16 17:43N 37°26' E 023°33'4 8.4
2017-Nov-16 17:17N 37°29' E 023°30'3 8.9
2017-Nov-16 17:00N 37°30' E 023°27'6 9.8
2017-Nov-16 16:26N 37°35' E 023°25'410.1
2017-Nov-16 16:00N 37°39' E 023°25'1325.7
2017-Nov-16 15:31N 37°51' E 023°32'8 1.2
2017-Nov-16 09:03N 37°57' E 023°39'0 0.0
2017-Nov-16 09:00N 37°57' E 023°39'1223.9
2017-Nov-16 08:31N 37°49' E 023°27'815.6
2017-Nov-16 08:00N 37°43' E 023°21'713.7
2017-Nov-16 07:31N 37°48' E 023°26'1326.1
2017-Nov-16 07:00N 37°57' E 023°39'815.0
2017-Nov-16 06:31N 37°53' E 023°30'915.5
2017-Nov-16 05:55N 37°45' E 023°26'1228.1
2017-Nov-16 05:31N 37°55' E 023°33'510.1
2017-Nov-16 05:00N 37°57' E 023°39'0 0.0
2017-Nov-15 07:05N 37°57' E 023°39'0 3.3
2017-Nov-15 07:01N 37°57' E 023°38'1325.5
2017-Nov-15 06:30N 37°48' E 023°27'1529.3
2017-Nov-15 06:00N 37°33' E 023°25'10 0.8
2017-Nov-14 17:11N 37°23' E 023°23'513.5
2017-Nov-14 16:50N 37°23' E 023°29'721.4
2017-Nov-14 16:30N 37°30' E 023°28'815.2
2017-Nov-14 15:59N 37°37' E 023°26'1429.6
2017-Nov-14 15:31N 37°51' E 023°30'917.9
2017-Nov-14 15:00N 37°57' E 023°39'3 6.5
2017-Nov-14 14:30N 37°55' E 023°35'1318.2
2017-Nov-14 13:48N 37°45' E 023°25'827.7
2017-Nov-14 13:31N 37°51' E 023°32'815.6
2017-Nov-14 13:00N 37°57' E 023°39'1122.8
2017-Nov-14 12:30N 37°49' E 023°29'816.3
2017-Nov-14 12:00N 37°43' E 023°21'5 9.7
2017-Nov-14 11:31N 37°46' E 023°25'1428.4
2017-Nov-14 11:00N 37°56' E 023°38'1 0.1
2017-Nov-14 06:46N 37°57' E 023°39'518.1
2017-Nov-14 06:31N 37°53' E 023°36'1632.0
2017-Nov-14 06:01N 37°37' E 023°29'816.5
2017-Nov-14 05:30N 37°29' E 023°29'10 0.3
2017-Nov-12 17:06N 37°22' E 023°21'332.7
2017-Nov-12 17:01N 37°22' E 023°24'813.1
2017-Nov-12 16:22N 37°30' E 023°28'513.0
2017-Nov-12 16:00N 37°34' E 023°25'1631.4
2017-Nov-12 15:31N 37°49' E 023°26'1224.2
2017-Nov-12 15:00N 37°57' E 023°39'0 0.1
2017-Nov-12 14:30N 37°57' E 023°39'0 0.0
2017-Nov-12 06:54N 37°57' E 023°39'615.5
2017-Nov-12 06:31N 37°52' E 023°33'1529.4
2017-Nov-12 06:00N 37°39' E 023°26'1020.3
2017-Nov-12 05:30N 37°29' E 023°29'10 0.8
2017-Nov-11 17:04N 37°23' E 023°21'232.0
2017-Nov-11 17:00N 37°22' E 023°23'914.7
2017-Nov-11 16:24N 37°29' E 023°30'615.2
2017-Nov-11 16:01N 37°34' E 023°25'1631.4
2017-Nov-11 15:31N 37°49' E 023°28'1122.8
2017-Nov-11 15:01N 37°57' E 023°39'0 0.0
2017-Nov-11 06:47N 37°57' E 023°39'310.3
2017-Nov-11 06:30N 37°54' E 023°37'1632.6
2017-Nov-11 06:01N 37°39' E 023°30'918.8
2017-Nov-11 05:30N 37°30' E 023°28'8 0.7
2017-Nov-10 17:03N 37°22' E 023°23'132.9
2017-Nov-10 17:00N 37°22' E 023°24'814.6
2017-Nov-10 16:26N 37°29' E 023°30'614.2
2017-Nov-10 16:00N 37°33' E 023°25'1530.3
2017-Nov-10 15:30N 37°48' E 023°28'1223.2
2017-Nov-10 15:00N 37°57' E 023°39'0 0.0
2017-Nov-10 14:30N 37°57' E 023°39'0 0.0
2017-Nov-10 07:01N 37°57' E 023°39'0 0.0
2017-Nov-10 06:49N 37°57' E 023°39'411.7
2017-Nov-10 06:31N 37°54' E 023°36'1732.4
2017-Nov-10 06:00N 37°38' E 023°30'817.0
2017-Nov-10 05:30N 37°29' E 023°29'  

Dump ship's entire track history